Time;durP1;ratioP1;P1;durP2;ratioP2;P2;SDS_P1;SDS_P2;PMS_P1;PMS_P2;Temp;Humidity;BMP_temperature;BMP_pressure;BME280_temperature;BME280_humidity;BME280_pressure;Samples;Min_cycle;Max_cycle;Signal;HPM_P1;HPM_P2
2023/09/07 00:01:34;;;;;;;5.03;3.00;;;18.80;99.90;;;;;;5096318;28;20458;-87
2023/09/07 00:04:03;;;;;;;4.82;3.20;;;18.70;99.90;;;;;;5095937;28;20042;-87
2023/09/07 00:06:29;;;;;;;5.95;3.30;;;18.70;99.90;;;;;;5096565;28;20047;-87
2023/09/07 00:08:56;;;;;;;5.95;3.00;;;18.80;99.90;;;;;;5079353;28;20113;-86
2023/09/07 00:11:23;;;;;;;6.10;3.03;;;18.70;99.90;;;;;;5079398;28;20028;-87
2023/09/07 00:13:50;;;;;;;5.00;2.90;;;18.70;99.90;;;;;;5112556;28;20035;-87
2023/09/07 00:16:18;;;;;;;4.90;3.08;;;18.70;99.90;;;;;;5095784;28;20501;-86
2023/09/07 00:18:45;;;;;;;6.60;2.88;;;18.60;99.90;;;;;;5095600;28;20086;-87
2023/09/07 00:21:12;;;;;;;5.13;2.80;;;18.60;99.90;;;;;;5095706;28;20040;-86
2023/09/07 00:23:40;;;;;;;4.72;2.90;;;18.50;99.90;;;;;;5095583;28;20039;-86
2023/09/07 00:26:06;;;;;;;4.65;3.05;;;18.50;99.90;;;;;;5112035;28;20484;-86
2023/09/07 00:28:33;;;;;;;7.78;2.92;;;18.50;99.90;;;;;;5111919;28;20040;-87
2023/09/07 00:31:00;;;;;;;4.93;2.80;;;18.40;99.90;;;;;;5094981;28;20039;-87
2023/09/07 00:33:26;;;;;;;6.88;2.85;;;18.40;99.90;;;;;;5079093;28;20032;-87
2023/09/07 00:35:53;;;;;;;4.85;2.95;;;18.40;99.90;;;;;;5079425;28;20063;-87
2023/09/07 00:38:20;;;;;;;4.72;2.88;;;18.40;99.90;;;;;;5094839;28;20036;-87
2023/09/07 00:40:46;;;;;;;5.13;3.13;;;18.30;99.90;;;;;;5094089;28;20050;-87
2023/09/07 00:43:13;;;;;;;8.27;3.60;;;18.30;99.90;;;;;;5078639;28;20054;-87
2023/09/07 00:45:40;;;;;;;6.55;3.10;;;18.30;99.90;;;;;;5078595;28;20044;-87
2023/09/07 00:48:07;;;;;;;7.65;3.20;;;18.30;99.90;;;;;;5094228;28;20048;-87
2023/09/07 00:50:34;;;;;;;6.82;3.55;;;18.20;99.90;;;;;;5095522;28;20036;-87
2023/09/07 00:53:02;;;;;;;5.70;3.35;;;18.20;99.90;;;;;;5078543;28;20032;-87
2023/09/07 00:55:32;;;;;;;6.05;3.67;;;18.20;99.90;;;;;;5095932;28;20176;-87
2023/09/07 00:57:59;;;;;;;5.13;3.58;;;18.10;99.90;;;;;;5095754;28;20469;-84
2023/09/07 01:00:26;;;;;;;4.95;3.42;;;18.10;99.90;;;;;;5095367;28;20087;-87
2023/09/07 01:02:53;;;;;;;7.68;3.80;;;18.10;99.90;;;;;;5095377;28;20521;-87
2023/09/07 01:05:24;;;;;;;7.10;3.40;;;18.10;99.90;;;;;;5111220;28;20131;-87
2023/09/07 01:07:57;;;;;;;7.07;3.55;;;18.10;99.90;;;;;;5111602;28;20040;-86
2023/09/07 01:10:24;;;;;;;7.82;3.67;;;18.00;99.90;;;;;;5111695;28;20040;-87
2023/09/07 01:12:51;;;;;;;8.25;3.95;;;18.00;99.90;;;;;;5111671;28;20089;-87
2023/09/07 01:15:17;;;;;;;6.05;4.00;;;18.00;99.90;;;;;;5094383;28;20048;-87
2023/09/07 01:17:45;;;;;;;6.45;3.88;;;18.00;99.90;;;;;;5078294;28;20047;-87
2023/09/07 01:20:13;;;;;;;5.65;3.85;;;18.00;99.90;;;;;;5095012;28;20132;-87
2023/09/07 01:22:41;;;;;;;7.07;3.22;;;18.00;99.90;;;;;;5111423;28;20403;-87
2023/09/07 01:25:08;;;;;;;5.15;3.60;;;17.90;99.90;;;;;;5111326;28;20047;-87
2023/09/07 01:27:35;;;;;;;8.13;3.65;;;18.00;99.90;;;;;;5128029;28;20054;-87
2023/09/07 01:30:03;;;;;;;4.35;3.03;;;17.90;99.90;;;;;;5111260;28;20051;-87
2023/09/07 01:32:30;;;;;;;8.38;3.88;;;17.90;99.90;;;;;;5111190;28;20572;-87
2023/09/07 01:34:58;;;;;;;6.80;3.78;;;17.90;99.90;;;;;;5094364;28;20119;-87
2023/09/07 01:37:24;;;;;;;5.38;3.47;;;17.90;99.90;;;;;;5110854;28;20496;-87
2023/09/07 01:39:51;;;;;;;7.72;4.03;;;17.90;99.90;;;;;;5094376;28;20047;-87
2023/09/07 01:42:18;;;;;;;6.60;3.60;;;17.90;99.90;;;;;;5077633;28;20182;-87
2023/09/07 01:44:45;;;;;;;7.05;3.67;;;17.90;99.90;;;;;;5094296;28;20488;-87
2023/09/07 01:47:11;;;;;;;5.50;3.42;;;17.90;99.90;;;;;;5077621;28;20044;-87
2023/09/07 01:49:38;;;;;;;6.05;3.58;;;17.90;99.90;;;;;;5094498;28;20032;-87
2023/09/07 01:52:05;;;;;;;5.63;3.25;;;17.90;99.90;;;;;;5094326;28;20055;-87
2023/09/07 01:54:32;;;;;;;6.45;3.70;;;17.90;99.90;;;;;;5110373;28;20097;-86
2023/09/07 01:56:58;;;;;;;6.20;3.67;;;17.90;99.90;;;;;;5094342;28;20040;-86
2023/09/07 01:59:25;;;;;;;8.38;3.78;;;17.80;99.90;;;;;;5126858;28;20527;-87
2023/09/07 02:01:52;;;;;;;8.27;3.70;;;17.90;99.90;;;;;;5077254;28;20036;-87
2023/09/07 02:04:18;;;;;;;5.65;3.55;;;17.80;99.90;;;;;;5077346;28;20035;-87
2023/09/07 02:06:45;;;;;;;7.07;3.35;;;17.80;99.90;;;;;;5127365;28;20105;-86
2023/09/07 02:09:12;;;;;;;5.93;3.33;;;17.80;99.90;;;;;;5093734;28;20560;-86
2023/09/07 02:11:39;;;;;;;5.95;3.53;;;17.80;99.90;;;;;;5110572;28;20194;-87
2023/09/07 02:14:06;;;;;;;6.75;3.00;;;17.70;99.90;;;;;;5110563;28;20382;-87
2023/09/07 02:16:33;;;;;;;5.30;3.42;;;17.70;99.90;;;;;;5109831;28;20055;-87
2023/09/07 02:19:03;;;;;;;6.63;3.92;;;17.70;99.90;;;;;;5110479;28;20074;-87
2023/09/07 02:21:30;;;;;;;7.30;3.83;;;17.70;99.90;;;;;;5109854;28;20067;-87
2023/09/07 02:23:57;;;;;;;6.97;3.80;;;17.70;99.90;;;;;;5110913;28;20513;-87
2023/09/07 02:26:23;;;;;;;9.95;3.80;;;17.60;99.90;;;;;;5093271;28;20040;-87
2023/09/07 02:28:50;;;;;;;5.18;3.88;;;17.60;99.90;;;;;;5093867;28;20506;-86
2023/09/07 02:31:17;;;;;;;5.80;3.63;;;17.60;99.90;;;;;;5076695;28;20040;-86
2023/09/07 02:33:44;;;;;;;5.63;3.55;;;17.60;99.90;;;;;;5093606;28;20047;-87
2023/09/07 02:36:10;;;;;;;6.72;3.65;;;17.60;99.90;;;;;;5127111;28;20032;-87
2023/09/07 02:38:37;;;;;;;5.45;3.45;;;17.50;99.90;;;;;;5076927;28;20046;-87
2023/09/07 02:41:04;;;;;;;6.80;3.88;;;17.50;99.90;;;;;;5110416;28;20040;-87
2023/09/07 02:43:31;;;;;;;7.45;3.72;;;17.50;99.90;;;;;;5093133;28;20443;-87
2023/09/07 02:45:58;;;;;;;7.88;3.80;;;17.50;99.90;;;;;;5093861;28;20044;-87
2023/09/07 02:48:25;;;;;;;7.53;3.78;;;17.40;99.90;;;;;;5076757;28;20082;-87
2023/09/07 02:50:52;;;;;;;5.57;3.72;;;17.40;99.90;;;;;;5110132;28;20498;-87
2023/09/07 02:53:18;;;;;;;5.93;4.03;;;17.40;99.90;;;;;;5076779;28;20037;-86
2023/09/07 02:55:45;;;;;;;7.68;4.30;;;17.40;99.90;;;;;;5093619;28;20059;-87
2023/09/07 02:58:12;;;;;;;6.43;4.75;;;17.30;99.90;;;;;;5077104;28;20538;-87
2023/09/07 03:00:46;;;;;;;6.35;3.80;;;17.30;99.90;;;;;;5110075;28;20538;-86
2023/09/07 03:03:14;;;;;;;6.47;3.80;;;17.30;99.90;;;;;;5110180;28;20411;-86
2023/09/07 03:05:41;;;;;;;6.97;4.22;;;17.20;99.90;;;;;;5109741;28;20553;-87
2023/09/07 03:08:08;;;;;;;6.40;4.88;;;17.20;99.90;;;;;;5109946;28;20100;-87
2023/09/07 03:10:39;;;;;;;7.78;4.78;;;17.20;99.90;;;;;;5092826;28;20032;-86
2023/09/07 03:13:09;;;;;;;6.97;4.40;;;17.20;99.90;;;;;;5113401;28;20503;-87
2023/09/07 03:15:36;;;;;;;9.93;4.72;;;17.10;99.90;;;;;;5097316;28;20138;-87
2023/09/07 03:18:03;;;;;;;6.60;4.75;;;17.10;99.90;;;;;;5080589;28;20044;-87
2023/09/07 03:20:32;;;;;;;9.73;5.03;;;17.10;99.90;;;;;;5080482;28;20040;-87
2023/09/07 03:23:01;;;;;;;6.43;4.57;;;17.10;99.90;;;;;;5113462;28;20035;-87
2023/09/07 03:25:27;;;;;;;7.28;4.65;;;17.10;99.90;;;;;;5080366;28;20044;-86
2023/09/07 03:27:54;;;;;;;7.90;4.93;;;17.10;99.90;;;;;;5096911;28;20045;-87
2023/09/07 03:30:21;;;;;;;6.25;4.47;;;17.10;99.90;;;;;;5080215;28;20036;-87
2023/09/07 03:32:48;;;;;;;7.40;4.70;;;17.00;99.90;;;;;;5080368;28;20047;-87
2023/09/07 03:35:15;;;;;;;7.60;5.20;;;17.00;99.90;;;;;;5113062;28;20036;-87
2023/09/07 03:37:42;;;;;;;6.68;4.72;;;17.00;99.90;;;;;;5112682;28;20570;-81
2023/09/07 03:40:09;;;;;;;9.52;4.80;;;17.00;99.90;;;;;;5123614;28;20121;-80
2023/09/07 03:42:37;;;;;;;8.43;5.03;;;17.00;99.90;;;;;;5098397;28;20044;-80
2023/09/07 03:45:04;;;;;;;11.27;5.55;;;17.00;99.90;;;;;;5095973;28;20487;-80
2023/09/07 03:47:31;;;;;;;7.95;5.07;;;17.00;99.90;;;;;;5108214;28;20105;-80
2023/09/07 03:49:58;;;;;;;10.68;5.05;;;16.90;99.90;;;;;;5079183;28;20036;-80
2023/09/07 03:52:26;;;;;;;8.10;4.85;;;16.90;99.90;;;;;;5095752;28;20093;-80
2023/09/07 03:54:56;;;;;;;7.68;4.90;;;16.90;99.90;;;;;;5079656;28;20126;-80
2023/09/07 03:57:24;;;;;;;6.80;5.15;;;16.90;99.90;;;;;;5102441;28;20044;-80
2023/09/07 03:59:51;;;;;;;9.18;5.03;;;16.90;99.90;;;;;;5092034;28;20048;-80
2023/09/07 04:02:18;;;;;;;10.07;5.38;;;16.90;99.90;;;;;;5092447;28;20037;-80
2023/09/07 04:04:52;;;;;;;10.70;5.65;;;16.90;99.90;;;;;;5080516;28;20040;-80
2023/09/07 04:07:20;;;;;;;9.63;5.43;;;16.90;99.90;;;;;;5107603;28;20070;-80
2023/09/07 04:09:46;;;;;;;9.20;5.00;;;16.90;99.90;;;;;;5109233;28;20620;-80
2023/09/07 04:12:13;;;;;;;9.40;5.10;;;16.90;99.90;;;;;;5075254;28;20040;-80
2023/09/07 04:14:41;;;;;;;9.98;5.47;;;16.80;99.90;;;;;;5091879;28;20044;-80
2023/09/07 04:17:08;;;;;;;8.52;5.75;;;16.80;99.90;;;;;;5078882;28;20052;-80
2023/09/07 04:19:35;;;;;;;14.10;5.90;;;16.80;99.90;;;;;;5061924;28;20062;-80
2023/09/07 04:22:01;;;;;;;7.13;5.32;;;16.80;99.90;;;;;;5062258;28;20039;-80
2023/09/07 04:24:28;;;;;;;8.52;5.47;;;16.80;99.90;;;;;;5094014;28;20078;-80
2023/09/07 04:27:02;;;;;;;9.20;5.60;;;16.70;99.90;;;;;;5078188;28;20081;-80
2023/09/07 04:29:29;;;;;;;13.82;5.53;;;16.70;99.90;;;;;;5075552;28;20123;-80
2023/09/07 04:31:56;;;;;;;9.43;5.90;;;16.70;99.90;;;;;;5107818;28;20127;-80
2023/09/07 04:34:23;;;;;;;8.15;5.82;;;16.60;99.90;;;;;;5058382;28;20080;-80
2023/09/07 04:36:49;;;;;;;7.75;5.72;;;16.60;99.90;;;;;;5074472;28;20520;-80
2023/09/07 04:39:16;;;;;;;9.02;6.15;;;16.60;99.90;;;;;;5058157;28;20041;-81
2023/09/07 04:41:43;;;;;;;10.73;5.85;;;16.60;99.90;;;;;;5041483;28;20033;-81
2023/09/07 04:44:09;;;;;;;9.77;6.70;;;16.60;99.90;;;;;;5074367;28;20048;-80
2023/09/07 04:46:36;;;;;;;9.30;6.10;;;16.60;99.90;;;;;;5041429;28;20509;-81
2023/09/07 04:49:03;;;;;;;8.35;6.05;;;16.50;99.90;;;;;;5058015;28;20485;-80
2023/09/07 04:51:29;;;;;;;8.20;5.72;;;16.50;99.90;;;;;;5041581;28;20097;-80
2023/09/07 04:53:56;;;;;;;12.23;5.95;;;16.50;99.90;;;;;;5077137;28;20111;-80
2023/09/07 04:56:25;;;;;;;8.95;6.35;;;16.50;99.90;;;;;;5061798;28;20396;-80
2023/09/07 04:58:52;;;;;;;8.18;6.38;;;16.50;99.90;;;;;;5062154;28;20036;-80
2023/09/07 05:01:18;;;;;;;8.77;6.10;;;16.50;99.90;;;;;;5061415;28;20047;-80
2023/09/07 05:03:45;;;;;;;8.65;5.82;;;16.50;99.90;;;;;;5077610;28;20589;-80
2023/09/07 05:06:15;;;;;;;10.15;5.65;;;16.50;99.90;;;;;;5061169;28;20032;-80
2023/09/07 05:08:42;;;;;;;11.65;5.85;;;16.50;99.90;;;;;;5094061;28;20048;-80
2023/09/07 05:11:08;;;;;;;16.00;6.75;;;16.40;99.90;;;;;;5094313;28;20040;-80
2023/09/07 05:13:35;;;;;;;12.25;6.43;;;16.40;99.90;;;;;;5061174;28;20059;-80
2023/09/07 05:16:02;;;;;;;15.23;6.03;;;16.40;99.90;;;;;;5069052;28;20055;-80
2023/09/07 05:18:30;;;;;;;10.40;6.07;;;16.40;99.90;;;;;;5078106;28;20458;-80
2023/09/07 05:20:57;;;;;;;9.32;5.85;;;16.40;99.90;;;;;;5084106;28;20416;-80
2023/09/07 05:23:26;;;;;;;9.43;6.18;;;16.40;99.90;;;;;;5110544;28;20040;-80
2023/09/07 05:25:54;;;;;;;9.23;6.40;;;16.40;99.90;;;;;;5094013;28;20144;-80
2023/09/07 05:28:22;;;;;;;9.55;6.18;;;16.50;99.90;;;;;;5093547;28;20489;-80
2023/09/07 05:30:49;;;;;;;8.60;5.75;;;16.50;99.90;;;;;;5110318;28;20484;-80
2023/09/07 05:33:17;;;;;;;11.02;5.95;;;16.50;99.90;;;;;;5077461;28;20039;-80
2023/09/07 05:35:45;;;;;;;10.82;6.28;;;16.50;99.90;;;;;;5109742;28;20448;-80
2023/09/07 05:38:12;;;;;;;9.57;6.10;;;16.60;99.90;;;;;;5110266;28;20036;-81
2023/09/07 05:40:41;;;;;;;9.68;5.80;;;16.50;99.90;;;;;;5110388;28;20044;-80
2023/09/07 05:43:08;;;;;;;9.68;6.07;;;16.60;99.90;;;;;;5100110;28;20047;-81
2023/09/07 05:45:37;;;;;;;8.40;5.95;;;16.70;99.90;;;;;;5110493;28;20040;-80
2023/09/07 05:48:04;;;;;;;10.40;5.95;;;16.70;99.90;;;;;;5103146;28;20043;-80
2023/09/07 05:50:37;;;;;;;8.48;6.28;;;16.70;99.90;;;;;;5074506;28;20511;-80
2023/09/07 05:53:04;;;;;;;9.63;6.03;;;16.70;99.90;;;;;;5093491;28;20545;-80
2023/09/07 05:55:31;;;;;;;9.52;6.15;;;16.80;99.90;;;;;;5114915;28;20033;-80
2023/09/07 05:57:58;;;;;;;7.93;5.88;;;16.80;99.90;;;;;;5089495;28;20044;-81
2023/09/07 06:00:25;;;;;;;7.70;5.93;;;16.80;99.90;;;;;;5102724;28;20412;-80
2023/09/07 06:02:52;;;;;;;7.80;5.70;;;16.90;99.90;;;;;;5109870;28;20043;-80
2023/09/07 06:05:19;;;;;;;11.40;6.40;;;16.90;99.90;;;;;;5109496;28;20040;-81
2023/09/07 06:07:46;;;;;;;10.32;6.32;;;17.00;99.90;;;;;;5092654;28;20040;-81
2023/09/07 06:10:12;;;;;;;7.82;6.05;;;17.00;99.90;;;;;;5076842;28;20488;-80
2023/09/07 06:12:39;;;;;;;8.55;6.20;;;17.10;99.90;;;;;;5089125;28;20083;-80
2023/09/07 06:15:07;;;;;;;9.63;6.20;;;17.10;99.90;;;;;;5074761;28;20040;-80
2023/09/07 06:17:34;;;;;;;8.98;6.65;;;17.20;99.90;;;;;;5076793;28;20044;-87
2023/09/07 06:20:01;;;;;;;9.50;6.35;;;17.20;99.90;;;;;;5060471;28;20040;-87
2023/09/07 06:22:28;;;;;;;11.00;5.88;;;17.30;99.90;;;;;;5110716;28;20150;-87
2023/09/07 06:24:54;;;;;;;12.40;6.68;;;17.30;99.90;;;;;;5078766;28;20101;-87
2023/09/07 06:27:21;;;;;;;9.00;6.03;;;17.30;99.90;;;;;;5069577;28;20975;-87
2023/09/07 06:29:48;;;;;;;9.40;6.60;;;17.40;99.90;;;;;;5094098;28;20032;-86
2023/09/07 06:32:15;;;;;;;12.50;6.78;;;17.40;99.90;;;;;;5076965;28;20046;-87
2023/09/07 06:34:42;;;;;;;10.25;6.70;;;17.50;99.90;;;;;;5097626;28;20110;-88
2023/09/07 06:37:08;;;;;;;10.07;6.25;;;17.60;99.90;;;;;;5080345;28;20043;-87
2023/09/07 06:39:35;;;;;;;9.73;6.75;;;17.60;99.90;;;;;;5083124;28;20048;-87
2023/09/07 06:42:03;;;;;;;8.45;6.15;;;17.70;99.90;;;;;;5091038;28;20108;-86
2023/09/07 06:44:30;;;;;;;9.48;6.40;;;17.80;99.90;;;;;;5114071;28;20047;-86
2023/09/07 06:46:56;;;;;;;8.93;6.32;;;17.80;99.90;;;;;;5092753;28;20843;-87
2023/09/07 06:49:23;;;;;;;9.98;6.82;;;17.90;99.90;;;;;;5092733;28;20036;-88
2023/09/07 06:51:50;;;;;;;9.13;6.30;;;18.00;99.90;;;;;;5081163;28;20036;-87
2023/09/07 06:54:16;;;;;;;11.85;6.35;;;18.10;99.90;;;;;;5083225;28;20042;-87
2023/09/07 06:56:43;;;;;;;10.75;6.70;;;18.20;99.90;;;;;;5097564;28;20081;-87
2023/09/07 06:59:10;;;;;;;13.20;6.38;;;18.30;99.90;;;;;;5097221;28;20059;-88
2023/09/07 07:01:36;;;;;;;13.15;7.15;;;18.40;99.90;;;;;;5097440;28;20092;-87
2023/09/07 07:04:03;;;;;;;13.30;7.07;;;18.50;99.90;;;;;;5078367;28;20043;-86
2023/09/07 07:06:30;;;;;;;11.27;6.40;;;18.60;99.90;;;;;;5080104;28;20044;-85
2023/09/07 07:08:57;;;;;;;11.55;7.25;;;18.70;99.90;;;;;;5096379;28;20040;-85
2023/09/07 07:11:23;;;;;;;11.23;6.70;;;18.80;99.90;;;;;;5063505;28;20032;-86
2023/09/07 07:13:50;;;;;;;8.82;6.55;;;18.90;99.90;;;;;;5062998;28;20042;-85
2023/09/07 07:16:17;;;;;;;11.68;6.30;;;18.90;99.90;;;;;;5079647;28;20116;-89
2023/09/07 07:18:44;;;;;;;11.13;6.93;;;19.10;99.90;;;;;;5079906;28;20404;-86
2023/09/07 07:21:10;;;;;;;8.50;6.00;;;19.20;99.90;;;;;;5063067;28;20049;-85
2023/09/07 07:23:37;;;;;;;7.90;5.72;;;19.30;99.90;;;;;;5093228;28;20043;-85
2023/09/07 07:26:04;;;;;;;8.57;6.40;;;19.40;99.90;;;;;;5099634;28;20102;-85
2023/09/07 07:28:31;;;;;;;9.27;6.75;;;19.60;99.90;;;;;;5082698;28;20063;-85
2023/09/07 07:30:57;;;;;;;8.88;5.97;;;19.70;99.90;;;;;;5083082;28;20042;-85
2023/09/07 07:33:24;;;;;;;7.93;6.20;;;19.80;99.90;;;;;;5099985;28;20042;-87
2023/09/07 07:35:51;;;;;;;10.00;6.32;;;20.00;99.90;;;;;;5099832;28;20051;-86
2023/09/07 07:38:19;;;;;;;8.80;5.82;;;20.10;99.90;;;;;;5095771;28;20078;-86
2023/09/07 07:40:46;;;;;;;8.23;6.22;;;20.20;99.90;;;;;;5063486;28;20044;-86
2023/09/07 07:43:13;;;;;;;10.30;6.20;;;20.30;99.90;;;;;;5095458;28;20475;-88
2023/09/07 07:45:39;;;;;;;13.77;6.30;;;20.40;99.90;;;;;;5063480;28;20075;-88
2023/09/07 07:48:07;;;;;;;8.48;5.70;;;20.50;99.90;;;;;;5062572;28;20044;-84
2023/09/07 07:50:41;;;;;;;9.38;5.88;;;20.70;99.90;;;;;;5078781;28;20497;-85
2023/09/07 07:53:08;;;;;;;8.25;6.20;;;20.70;99.90;;;;;;5119700;28;20377;-87
2023/09/07 07:55:40;;;;;;;9.27;5.90;;;20.90;99.90;;;;;;5092536;28;20040;-87
2023/09/07 07:58:10;;;;;;;11.50;6.25;;;21.00;99.90;;;;;;5092512;28;20032;-87
2023/09/07 08:00:38;;;;;;;11.88;5.88;;;21.10;99.90;;;;;;5079010;28;20043;-87
2023/09/07 08:03:08;;;;;;;8.30;5.38;;;21.20;99.90;;;;;;5095769;28;20044;-86
2023/09/07 08:05:35;;;;;;;11.43;5.72;;;21.30;99.90;;;;;;5112119;28;20519;-86
2023/09/07 08:08:02;;;;;;;8.48;5.47;;;21.40;99.90;;;;;;5062128;28;20048;-86
2023/09/07 08:10:29;;;;;;;11.55;5.13;;;21.50;99.90;;;;;;5079080;28;20032;-86
2023/09/07 08:12:56;;;;;;;7.63;5.32;;;21.60;99.90;;;;;;5079078;28;20073;-87
2023/09/07 08:15:24;;;;;;;7.72;5.45;;;21.70;99.90;;;;;;5095294;28;20135;-86
2023/09/07 08:17:52;;;;;;;8.95;5.65;;;21.80;99.90;;;;;;5111624;28;20523;-86
2023/09/07 08:20:18;;;;;;;8.40;5.70;;;22.00;99.90;;;;;;5111418;28;20040;-86
2023/09/07 08:22:45;;;;;;;7.72;5.00;;;22.20;99.90;;;;;;5095375;28;20047;-86
2023/09/07 08:25:13;;;;;;;8.95;5.53;;;22.30;99.90;;;;;;5095318;28;20373;-86
2023/09/07 08:27:44;;;;;;;10.48;5.35;;;22.40;99.90;;;;;;5094801;28;20039;-85
2023/09/07 08:30:16;;;;;;;8.88;5.25;;;22.50;99.90;;;;;;5095281;28;20040;-88
2023/09/07 08:32:47;;;;;;;10.18;5.63;;;22.70;99.90;;;;;;5095877;28;20124;-88
2023/09/07 08:35:13;;;;;;;8.43;4.78;;;22.80;99.90;;;;;;5102743;28;20067;-87
2023/09/07 08:37:40;;;;;;;8.65;4.95;;;22.90;99.90;;;;;;5070450;28;20486;-86
2023/09/07 08:40:08;;;;;;;8.10;5.15;;;23.00;99.90;;;;;;5106050;28;20085;-86
2023/09/07 08:42:39;;;;;;;14.02;4.72;;;23.10;99.90;;;;;;5097893;28;20086;-85
2023/09/07 08:45:10;;;;;;;7.13;4.85;;;23.20;99.90;;;;;;5101013;28;20032;-86
2023/09/07 08:47:37;;;;;;;7.03;4.70;;;23.30;99.90;;;;;;5099706;28;20110;-87
2023/09/07 08:50:08;;;;;;;6.20;4.00;;;23.40;99.90;;;;;;5111414;28;20044;-86
2023/09/07 08:52:35;;;;;;;5.55;4.07;;;23.50;99.90;;;;;;5095170;28;20396;-87
2023/09/07 08:55:05;;;;;;;6.15;4.57;;;23.60;99.90;;;;;;5094586;28;20047;-86
2023/09/07 08:57:32;;;;;;;9.30;4.53;;;23.60;99.90;;;;;;5094945;28;20039;-87
2023/09/07 08:59:59;;;;;;;6.38;4.57;;;23.80;99.90;;;;;;5095059;28;20131;-88
2023/09/07 09:02:26;;;;;;;7.88;4.28;;;23.80;99.90;;;;;;5078108;28;20039;-87
2023/09/07 09:04:53;;;;;;;7.72;4.32;;;23.90;99.90;;;;;;5077979;28;20036;-88
2023/09/07 09:07:21;;;;;;;7.25;4.20;;;24.00;99.90;;;;;;5094768;28;20130;-86
2023/09/07 09:09:48;;;;;;;7.60;4.35;;;24.10;99.90;;;;;;5077052;28;20755;-88
2023/09/07 09:12:22;;;;;;;9.52;4.82;;;24.30;99.90;;;;;;5077893;28;20039;-86
2023/09/07 09:14:49;;;;;;;8.15;4.72;;;24.40;99.90;;;;;;5094641;28;20370;-86
2023/09/07 09:17:15;;;;;;;9.55;3.90;;;24.50;99.90;;;;;;5077314;28;20135;-87
2023/09/07 09:19:42;;;;;;;8.13;4.55;;;24.60;99.90;;;;;;5103344;28;20500;-85
2023/09/07 09:22:12;;;;;;;7.88;4.65;;;24.70;99.90;;;;;;5110433;28;20047;-86
2023/09/07 09:24:38;;;;;;;11.05;4.65;;;24.90;99.90;;;;;;5111397;28;20105;-86
2023/09/07 09:27:05;;;;;;;8.60;4.53;;;25.00;99.90;;;;;;5110025;28;20040;-85
2023/09/07 09:29:33;;;;;;;8.35;5.30;;;25.10;99.90;;;;;;5114458;28;20864;-87
2023/09/07 09:32:04;;;;;;;8.07;4.75;;;25.30;99.90;;;;;;5097650;28;20043;-87
2023/09/07 09:34:35;;;;;;;8.88;4.90;;;25.30;99.90;;;;;;5080894;28;20040;-87
2023/09/07 09:37:03;;;;;;;11.20;4.60;;;25.40;99.90;;;;;;5105278;28;20130;-86
2023/09/07 09:39:30;;;;;;;6.80;4.50;;;25.60;99.90;;;;;;5076951;28;20079;-86
2023/09/07 09:41:57;;;;;;;9.35;4.65;;;25.60;99.90;;;;;;5060409;28;20078;-86
2023/09/07 09:44:27;;;;;;;5.80;4.15;;;25.70;99.90;;;;;;5076970;28;20488;-86
2023/09/07 09:46:56;;;;;;;6.93;4.20;;;25.80;99.90;;;;;;5093940;28;20047;-88
2023/09/07 09:49:23;;;;;;;9.38;4.82;;;25.90;99.90;;;;;;5110258;28;20036;-88
2023/09/07 09:51:50;;;;;;;8.13;4.15;;;26.00;99.90;;;;;;5094933;28;20072;-87
2023/09/07 09:54:18;;;;;;;6.30;4.25;;;26.10;99.90;;;;;;5097331;28;20027;-87
2023/09/07 09:56:45;;;;;;;7.38;4.35;;;26.20;99.90;;;;;;5113769;28;20567;-88
2023/09/07 09:59:13;;;;;;;9.25;3.80;;;26.30;99.90;;;;;;5092068;28;20043;-88
2023/09/07 10:01:47;;;;;;;6.03;3.95;;;26.40;99.90;;;;;;5087500;28;20039;-89
2023/09/07 10:04:17;;;;;;;6.18;3.80;;;26.40;99.90;;;;;;5110078;28;20070;-87
2023/09/07 10:06:53;;;;;;;11.68;4.20;;;26.50;99.90;;;;;;5113812;28;20039;-88
2023/09/07 10:09:20;;;;;;;9.95;4.00;;;26.60;99.90;;;;;;5131094;28;20070;-87
2023/09/07 10:11:53;;;;;;;9.48;4.22;;;26.60;99.90;;;;;;5089981;28;20494;-86
2023/09/07 10:14:20;;;;;;;5.47;3.88;;;26.70;99.90;;;;;;5107461;28;20036;-87
2023/09/07 10:16:52;;;;;;;8.70;3.90;;;26.70;99.90;;;;;;5078501;28;20127;-87
2023/09/07 10:19:21;;;;;;;7.95;3.92;;;26.70;99.90;;;;;;5107594;28;20036;-86
2023/09/07 10:21:48;;;;;;;5.00;3.50;;;26.80;99.90;;;;;;5108027;28;20038;-86
2023/09/07 10:24:36;;;;;;;6.50;3.55;;;26.90;99.90;;;;;;5095954;28;20709;-90
2023/09/07 10:27:06;;;;;;;7.30;3.38;;;27.00;99.90;;;;;;5084188;28;20040;-90
2023/09/07 10:29:50;;;;;;;5.88;3.58;;;27.20;99.90;;;;;;5093059;28;20035;-89
2023/09/07 10:32:17;;;;;;;7.07;3.55;;;27.20;99.90;;;;;;5086189;28;20035;-89
2023/09/07 10:34:44;;;;;;;5.22;3.28;;;27.30;99.90;;;;;;5060986;28;20047;-88
2023/09/07 10:37:13;;;;;;;14.38;3.60;;;27.40;99.90;;;;;;5077108;28;20085;-91
2023/09/07 10:39:43;;;;;;;6.50;3.38;;;27.40;99.90;;;;;;5067495;28;20040;-91
2023/09/07 10:42:23;;;;;;;5.57;3.17;;;27.50;99.90;;;;;;5108079;28;20031;-90
2023/09/07 10:44:50;;;;;;;5.70;3.80;;;27.50;99.90;;;;;;5113624;28;20503;-89
2023/09/07 10:47:17;;;;;;;5.82;3.22;;;27.50;99.90;;;;;;5113042;28;20036;-88
2023/09/07 10:49:44;;;;;;;7.00;3.53;;;27.60;99.90;;;;;;5110867;28;20054;-90
2023/09/07 10:52:11;;;;;;;7.88;3.60;;;27.70;99.90;;;;;;5130112;28;20031;-88
2023/09/07 10:54:37;;;;;;;7.57;3.60;;;27.70;99.90;;;;;;5096170;28;20071;-91
2023/09/07 10:57:17;;;;;;;4.93;3.60;;;27.80;99.90;;;;;;5080553;28;20040;-89
2023/09/07 10:59:46;;;;;;;5.53;3.67;;;27.80;99.90;;;;;;5114026;28;20051;-89
2023/09/07 11:02:15;;;;;;;4.78;3.45;;;27.80;99.90;;;;;;5082679;28;20048;-89
2023/09/07 11:04:41;;;;;;;5.65;3.58;;;27.90;99.90;;;;;;5111798;28;20043;-90
2023/09/07 11:07:08;;;;;;;5.53;3.28;;;27.80;99.90;;;;;;5097272;28;20399;-89
2023/09/07 11:09:41;;;;;;;6.55;3.60;;;27.80;99.90;;;;;;5104902;28;20043;-88
2023/09/07 11:12:08;;;;;;;8.88;3.45;;;27.90;99.90;;;;;;5129123;28;20122;-88
2023/09/07 11:14:35;;;;;;;5.60;3.40;;;27.80;99.90;;;;;;5090335;28;20410;-88
2023/09/07 11:17:03;;;;;;;6.68;4.10;;;27.90;99.90;;;;;;5075033;28;20132;-88
2023/09/07 11:19:33;;;;;;;5.88;3.45;;;27.90;99.90;;;;;;5071576;28;20052;-89
2023/09/07 11:22:00;;;;;;;8.70;3.50;;;28.00;99.90;;;;;;5092634;28;20126;-89
2023/09/07 11:24:27;;;;;;;5.20;3.47;;;28.00;99.90;;;;;;5106843;28;20460;-89
2023/09/07 11:26:54;;;;;;;7.03;3.63;;;28.00;99.90;;;;;;5113026;28;20104;-89
2023/09/07 11:29:22;;;;;;;8.15;3.30;;;28.10;99.90;;;;;;5079489;28;20032;-90
2023/09/07 11:31:49;;;;;;;6.35;3.40;;;28.10;99.90;;;;;;5096444;28;20079;-90
2023/09/07 11:34:16;;;;;;;8.23;3.17;;;28.10;99.90;;;;;;5100085;28;20039;-89
2023/09/07 11:36:43;;;;;;;5.22;3.80;;;28.10;99.90;;;;;;5083907;28;20487;-89
2023/09/07 11:39:13;;;;;;;7.20;3.60;;;28.20;99.90;;;;;;5083902;28;20088;-90
2023/09/07 11:41:43;;;;;;;7.85;3.72;;;28.20;99.90;;;;;;5100611;28;20341;-89
2023/09/07 11:44:11;;;;;;;4.75;3.35;;;28.30;99.90;;;;;;5100450;28;20042;-91
2023/09/07 11:46:39;;;;;;;6.50;3.38;;;28.30;99.90;;;;;;5133170;28;20075;-90
2023/09/07 11:49:05;;;;;;;4.75;3.17;;;28.30;99.90;;;;;;5080549;28;20035;-90
2023/09/07 11:51:33;;;;;;;5.40;3.20;;;28.30;99.90;;;;;;5070294;28;20035;-89
2023/09/07 11:54:01;;;;;;;5.60;3.25;;;28.30;99.90;;;;;;5093480;28;20039;-89
2023/09/07 11:56:28;;;;;;;5.80;3.20;;;28.30;99.90;;;;;;5079877;28;20036;-90
2023/09/07 11:58:55;;;;;;;6.15;3.53;;;28.40;99.90;;;;;;5111893;28;20050;-89
2023/09/07 12:01:22;;;;;;;6.38;3.53;;;28.30;99.50;;;;;;5109612;28;20051;-91
2023/09/07 12:03:49;;;;;;;6.47;3.45;;;28.30;99.40;;;;;;5083300;28;20046;-90
2023/09/07 12:06:15;;;;;;;6.80;3.38;;;28.40;99.50;;;;;;5083492;28;20202;-90
2023/09/07 12:08:57;;;;;;;6.20;3.22;;;28.70;99.60;;;;;;5091183;28;20051;-90
2023/09/07 12:11:24;;;;;;;5.70;3.50;;;28.50;99.70;;;;;;5096575;28;20036;-89
2023/09/07 12:13:51;;;;;;;6.80;3.30;;;28.40;99.10;;;;;;5112305;28;20032;-90
2023/09/07 12:16:17;;;;;;;7.22;3.42;;;28.50;99.00;;;;;;5080318;28;20550;-90
2023/09/07 12:18:44;;;;;;;4.53;3.00;;;28.50;98.70;;;;;;5068082;28;20059;-89
2023/09/07 12:21:11;;;;;;;4.95;3.38;;;28.50;98.50;;;;;;5084024;28;20502;-89
2023/09/07 12:23:37;;;;;;;6.57;3.33;;;28.50;98.30;;;;;;5083283;28;20040;-89
2023/09/07 12:26:04;;;;;;;4.97;3.10;;;28.50;98.40;;;;;;5085908;28;20039;-92
2023/09/07 12:28:34;;;;;;;9.32;3.30;;;28.50;98.50;;;;;;5095710;28;20101;-92
2023/09/07 12:31:01;;;;;;;5.63;3.33;;;28.60;98.70;;;;;;5073289;28;20551;-91
2023/09/07 12:33:30;;;;;;;5.78;3.30;;;28.60;98.40;;;;;;5098895;28;20075;-86
2023/09/07 12:35:56;;;;;;;6.25;3.00;;;28.70;98.30;;;;;;5083525;28;20711;-88
2023/09/07 12:38:27;;;;;;;7.05;3.35;;;28.60;98.00;;;;;;5098512;28;20068;-88
2023/09/07 12:40:54;;;;;;;7.38;3.15;;;28.70;98.00;;;;;;5083378;28;20101;-88
2023/09/07 12:43:21;;;;;;;5.22;3.25;;;28.60;97.80;;;;;;5090761;28;20040;-88
2023/09/07 12:45:48;;;;;;;5.35;3.20;;;28.60;97.90;;;;;;5110350;28;20062;-89
2023/09/07 12:48:15;;;;;;;5.95;3.15;;;28.60;97.60;;;;;;5062040;28;20507;-88